Pont-y-pwl, United Kingdom
Current Conditions -  °F | °C
As of 4:50 AM on Sunday 21 Dec 2014 (Local Time) from EGFF Reporting Station
Overcast Overcast  
Wind Chill: 39°   Ceiling: 300
Heat Index: 46°   Visibility: 5mi
Dew Point: 45°   Wind: 20mph
Humidity: 93%   Direction: 270°W
Pressure: 30.39"   Gusts: NA
Location:  51.7°N, 3.04°W
Report Text: EGFF 210450Z AUTO 27017KT 8000 BKN003 OVC030 08/07 Q1029 RERA REDZ
Loading
Personal Weather Stations






























Interactive Weather Map New forecast layout! Learn more

10-Day Weather Forecast

Advertisements
Track Severe Weather on mobile